This is the latest recevied weather packets stored in our database for station/object IU1OLT-7. If no packets are shown the sender has not sent any weather packets the latest 10 day(s).
| Time | Temp. | Humidity | Pressure | Rain* | Wind** | Luminosity | Snow |
|---|---|---|---|---|---|---|---|
| 1777470690 | 21.11° C | 31% | 1019.1 hPa | - | - | - | - |
| 1777469790 | 22.22° C | 30% | 1019.1 hPa | - | - | - | - |
| 1777468888 | 22.22° C | 30% | 1019.1 hPa | - | - | - | - |
| 1777467988 | 20° C | 41% | 1019.2 hPa | - | - | - | - |
| 1777467088 | 21.67° C | 34% | 1019.2 hPa | - | - | - | - |
| 1777466188 | 23.89° C | 27% | 1019 hPa | - | - | - | - |
| 1777465288 | 22.78° C | 30% | 1019 hPa | - | - | - | - |
| 1777464388 | 20° C | 32% | 1019.1 hPa | - | - | - | - |
| 1777463488 | 23.33° C | 27% | 1019 hPa | - | - | - | - |
| 1777462588 | 25° C | 25% | 1019 hPa | - | - | - | - |
| 1777461688 | 19.44° C | 33% | 1019.2 hPa | - | - | - | - |
| 1777460788 | 23.33° C | 26% | 1019 hPa | - | - | - | - |
| 1777459888 | 24.44° C | 23% | 1019 hPa | - | - | - | - |
| 1777458988 | 23.89° C | 28% | 1019.1 hPa | - | - | - | - |
| 1777458088 | 22.78° C | 27% | 1019.1 hPa | - | - | - | - |
| 1777457188 | 23.89° C | 27% | 1019.2 hPa | - | - | - | - |
| 1777456288 | 23.89° C | 25% | 1019.2 hPa | - | - | - | - |
| 1777455388 | 24.44° C | 26% | 1019.1 hPa | - | - | - | - |
| 1777454488 | 21.67° C | 28% | 1019.3 hPa | - | - | - | - |
| 1777453588 | 23.89° C | 26% | 1019.1 hPa | - | - | - | - |
| 1777452688 | 21.11° C | 32% | 1019.2 hPa | - | - | - | - |
| 1777451788 | 22.78° C | 28% | 1019 hPa | - | - | - | - |
| 1777450888 | 22.78° C | 26% | 1019 hPa | - | - | - | - |
| 1777449988 | 22.78° C | 24% | 1018.9 hPa | - | - | - | - |
| 1777449088 | 21.11° C | 27% | 1018.9 hPa | - | - | - | - |
* Rain since midnight (hover to see other rain measurements)
** Current wind speed in m/s (hover to see current wind gust speed)